createdAt,value
2019-04-28T00:01:54.115Z,75.13
2019-04-28T00:04:23.597Z,75.28
2019-04-28T00:06:53.328Z,75.11
2019-04-28T00:09:23.334Z,75.56
2019-04-28T00:11:52.725Z,76.33
2019-04-28T00:14:22.309Z,77.04
2019-04-28T00:16:52.171Z,76.72
2019-04-28T00:19:23.222Z,75.88
2019-04-28T00:22:11.050Z,75.54
2019-04-28T00:24:42.198Z,76.00
2019-04-28T00:27:12.077Z,76.60
2019-04-28T00:29:45.949Z,76.79
2019-04-28T00:32:12.836Z,76.91
2019-04-28T00:34:42.232Z,76.44
2019-04-28T00:37:13.267Z,76.57
2019-04-28T00:39:42.676Z,75.03
2019-04-28T00:42:12.174Z,75.53
2019-04-28T00:44:43.326Z,75.54
2019-04-28T00:47:12.867Z,75.39
2019-04-28T00:49:48.067Z,75.12
2019-04-28T00:52:18.897Z,75.34
2019-04-28T00:54:49.241Z,75.40
2019-04-28T00:57:20.871Z,75.61
2019-04-28T00:59:57.684Z,75.00
2019-04-28T01:02:32.445Z,74.08
2019-04-28T01:05:01.981Z,74.04
2019-04-28T01:07:33.024Z,74.96
2019-04-28T01:10:02.764Z,74.82
2019-04-28T01:12:32.216Z,75.14
2019-04-28T01:15:04.499Z,75.14
2019-04-28T01:17:52.187Z,75.87
2019-04-28T01:20:23.489Z,75.68
2019-04-28T01:22:52.899Z,76.52
2019-04-28T01:25:22.397Z,76.00
2019-04-28T01:27:55.491Z,76.68
2019-04-28T01:30:29.945Z,76.85
2019-04-28T01:33:01.010Z,76.95
2019-04-28T01:35:44.952Z,77.03
2019-04-28T01:38:14.369Z,77.22
2019-04-28T01:40:43.757Z,77.17
2019-04-28T01:43:13.163Z,77.37
2019-04-28T01:45:42.572Z,77.44
2019-04-28T01:48:11.981Z,77.22
2019-04-28T01:50:41.387Z,77.94
2019-04-28T01:53:10.782Z,77.51
2019-04-28T01:55:41.123Z,77.38
2019-04-28T01:58:10.572Z,77.56
2019-04-28T02:00:40.596Z,77.65
2019-04-28T02:03:10.354Z,77.73
2019-04-28T02:05:40.502Z,78.71
2019-04-28T02:08:10.287Z,77.81
2019-04-28T02:10:40.229Z,78.12
2019-04-28T02:13:11.374Z,77.69
2019-04-28T02:15:40.880Z,78.82
2019-04-28T02:18:10.289Z,79.19
2019-04-28T02:20:41.329Z,79.41
2019-04-28T02:23:15.354Z,79.37
2019-04-28T02:25:44.748Z,79.07
2019-04-28T02:28:14.156Z,78.84
2019-04-28T02:30:49.204Z,79.22
2019-04-28T02:33:14.724Z,79.30
2019-04-28T02:35:44.110Z,79.23
2019-04-28T02:38:13.517Z,78.66
2019-04-28T02:40:43.366Z,78.50
2019-04-28T02:43:12.756Z,77.89
2019-04-28T02:45:42.408Z,78.11
2019-04-28T02:48:13.459Z,77.10
2019-04-28T02:50:56.520Z,78.52
2019-04-28T02:53:27.560Z,78.31
2019-04-28T02:55:57.090Z,78.15
2019-04-28T02:58:26.497Z,77.97
2019-04-28T03:01:09.407Z,78.27
2019-04-28T03:03:27.361Z,77.42
2019-04-28T03:05:56.756Z,76.59
2019-04-28T03:08:26.342Z,76.68
2019-04-28T03:10:55.728Z,76.97
2019-04-28T03:13:25.278Z,76.84
2019-04-28T03:15:54.666Z,76.34
2019-04-28T03:18:24.162Z,76.49
2019-04-28T03:20:53.612Z,75.77
2019-04-28T03:23:23.019Z,75.79
2019-04-28T03:25:54.046Z,75.62
2019-04-28T03:28:25.092Z,75.44
2019-04-28T03:31:34.778Z,75.19
2019-04-28T03:33:43.407Z,75.46
2019-04-28T03:36:08.601Z,76.15
2019-04-28T03:38:40.541Z,75.93
2019-04-28T03:41:11.185Z,75.96
2019-04-28T03:43:40.874Z,76.06
2019-04-28T03:46:20.290Z,76.06
2019-04-28T03:48:50.877Z,75.60
2019-04-28T03:51:21.333Z,76.45
2019-04-28T03:53:50.878Z,75.23
2019-04-28T03:56:20.915Z,75.31
2019-04-28T03:58:50.677Z,74.64
2019-04-28T04:01:20.810Z,75.42
2019-04-28T04:03:51.559Z,75.28
2019-04-28T04:06:22.690Z,75.68
2019-04-28T04:08:52.258Z,76.08
2019-04-28T04:11:25.953Z,76.27
2019-04-28T04:13:57.018Z,76.07
2019-04-28T04:16:33.760Z,75.86
2019-04-28T04:19:04.877Z,75.44
2019-04-28T04:21:34.262Z,75.95
2019-04-28T04:24:04.156Z,76.04
2019-04-28T04:26:33.906Z,75.55
2019-04-28T04:29:04.460Z,75.65
2019-04-28T04:31:33.844Z,75.91
2019-04-28T04:34:03.648Z,75.98
2019-04-28T04:36:33.097Z,75.61
2019-04-28T04:39:02.513Z,75.56
2019-04-28T04:41:31.902Z,75.89
2019-04-28T04:44:01.509Z,75.08
2019-04-28T04:46:31.537Z,74.54
2019-04-28T04:49:01.122Z,75.36
2019-04-28T04:51:30.934Z,76.36
2019-04-28T04:54:01.036Z,75.86
2019-04-28T04:56:30.765Z,75.23
2019-04-28T04:59:02.820Z,76.04
2019-04-28T05:01:32.973Z,75.60
2019-04-28T05:04:04.016Z,76.01
2019-04-28T05:06:41.539Z,76.36
2019-04-28T05:09:11.549Z,76.52
2019-04-28T05:11:40.994Z,76.01
2019-04-28T05:14:12.061Z,76.72
2019-04-28T05:16:41.616Z,77.07
2019-04-28T05:19:11.042Z,77.37
2019-04-28T05:21:40.606Z,77.21
2019-04-28T05:24:17.647Z,77.27
2019-04-28T05:26:49.635Z,77.76
2019-04-28T05:29:26.566Z,77.86
2019-04-28T05:31:54.770Z,77.22
2019-04-28T05:34:24.040Z,76.06
2019-04-28T05:36:53.145Z,76.18
2019-04-28T05:39:22.563Z,77.15
2019-04-28T05:41:51.977Z,76.15
2019-04-28T05:44:21.374Z,75.68
2019-04-28T05:46:50.907Z,76.30
2019-04-28T05:49:29.704Z,76.70
2019-04-28T05:52:16.833Z,76.27
2019-04-28T05:54:53.821Z,74.69
2019-04-28T05:57:24.883Z,75.56
2019-04-28T06:00:12.143Z,76.29
2019-04-28T06:02:54.213Z,74.33
2019-04-28T06:05:17.013Z,74.05
2019-04-28T06:08:04.141Z,74.51
2019-04-28T06:10:33.616Z,74.91
2019-04-28T06:13:03.019Z,75.24
2019-04-28T06:15:32.429Z,74.65
2019-04-28T06:18:01.817Z,74.33
2019-04-28T06:20:31.234Z,74.44
2019-04-28T06:23:00.731Z,75.00
2019-04-28T06:25:30.150Z,76.04
2019-04-28T06:27:59.674Z,75.46
2019-04-28T06:30:29.078Z,75.59
2019-04-28T06:33:07.584Z,75.31
2019-04-28T06:35:29.572Z,75.42
2019-04-28T06:37:58.964Z,75.41
2019-04-28T06:40:28.374Z,75.41
2019-04-28T06:42:57.773Z,74.31
2019-04-28T06:45:27.174Z,73.28
2019-04-28T06:47:56.740Z,74.33
2019-04-28T06:50:26.126Z,74.01
2019-04-28T06:52:55.536Z,74.45
2019-04-28T06:55:24.932Z,73.71
2019-04-28T06:57:54.425Z,74.33
2019-04-28T07:00:23.816Z,74.93
2019-04-28T07:02:53.228Z,73.94
2019-04-28T07:05:22.718Z,75.17
2019-04-28T07:07:52.114Z,74.60
2019-04-28T07:10:21.520Z,75.94
2019-04-28T07:12:50.970Z,75.25
2019-04-28T07:15:20.436Z,75.48
2019-04-28T07:17:49.848Z,75.34
2019-04-28T07:20:29.433Z,74.62
2019-04-28T07:22:58.863Z,74.56
2019-04-28T07:25:28.260Z,75.14
2019-04-28T07:27:57.676Z,73.78
2019-04-28T07:30:27.135Z,73.95
2019-04-28T07:32:56.541Z,74.16
2019-04-28T07:35:26.017Z,72.53
2019-04-28T07:37:55.428Z,72.84
2019-04-28T07:40:24.885Z,71.58
2019-04-28T07:42:54.294Z,69.24
2019-04-28T07:45:23.789Z,69.22
2019-04-28T07:47:53.193Z,68.38
2019-04-28T07:50:22.596Z,65.21
2019-04-28T07:52:56.727Z,64.01
2019-04-28T07:55:26.116Z,63.63
2019-04-28T07:57:55.562Z,63.30
2019-04-28T08:00:26.679Z,62.75
2019-04-28T08:02:56.165Z,62.62
2019-04-28T08:05:25.627Z,62.95
2019-04-28T08:07:55.047Z,61.58
2019-04-28T08:10:24.445Z,60.69
2019-04-28T08:12:53.859Z,61.64
2019-04-28T08:15:23.527Z,61.54
2019-04-28T08:17:52.950Z,63.67
2019-04-28T08:20:22.400Z,65.21
2019-04-28T08:22:51.799Z,66.44
2019-04-28T08:25:21.475Z,66.40
2019-04-28T08:27:50.833Z,66.58
2019-04-28T08:30:20.232Z,66.86
2019-04-28T08:33:00.627Z,66.57
2019-04-28T08:35:30.016Z,66.85
2019-04-28T08:37:59.449Z,65.69
2019-04-28T08:40:28.851Z,65.50
2019-04-28T08:42:58.269Z,64.41
2019-04-28T08:45:27.670Z,61.99
2019-04-28T08:47:58.065Z,64.76
2019-04-28T08:50:27.585Z,61.16
2019-04-28T08:52:57.032Z,64.12
2019-04-28T08:55:26.442Z,62.37
2019-04-28T08:57:55.859Z,63.91
2019-04-28T09:00:25.259Z,66.91
2019-04-28T09:02:54.674Z,68.44
2019-04-28T09:05:24.139Z,67.87
2019-04-28T09:07:53.562Z,68.19
2019-04-28T09:10:22.954Z,69.56
2019-04-28T09:12:52.361Z,69.22
2019-04-28T09:15:21.751Z,70.03
2019-04-28T09:17:51.156Z,69.60
2019-04-28T09:20:20.754Z,70.82
2019-04-28T09:22:50.175Z,70.65
2019-04-28T09:25:19.614Z,69.69
2019-04-28T09:27:49.068Z,68.18
2019-04-28T09:30:18.536Z,67.21
2019-04-28T09:32:47.977Z,67.32
2019-04-28T09:35:17.500Z,65.40
2019-04-28T09:37:46.897Z,66.28
2019-04-28T09:40:17.403Z,67.12
2019-04-28T09:42:57.644Z,66.59
2019-04-28T09:45:31.369Z,66.56
2019-04-28T09:48:00.808Z,64.53
2019-04-28T09:50:30.213Z,65.06
2019-04-28T09:52:59.623Z,61.42
2019-04-28T09:55:29.068Z,59.22
2019-04-28T09:57:58.473Z,59.57
2019-04-28T10:00:27.865Z,59.33
2019-04-28T10:02:57.359Z,54.42
2019-04-28T10:05:26.758Z,53.67
2019-04-28T10:07:56.159Z,52.17
2019-04-28T10:10:25.655Z,43.83
2019-04-28T10:12:55.066Z,43.93
2019-04-28T10:15:24.602Z,41.14
2019-04-28T10:17:54.001Z,42.85
2019-04-28T10:20:23.580Z,42.87
2019-04-28T10:22:52.974Z,41.65
2019-04-28T10:25:22.389Z,40.98
2019-04-28T10:27:51.817Z,45.06
2019-04-28T10:30:21.235Z,48.81
2019-04-28T10:32:50.715Z,53.12
2019-04-28T10:35:20.142Z,58.92
2019-04-28T10:37:49.537Z,60.48
2019-04-28T10:40:31.019Z,63.32
2019-04-28T10:43:00.413Z,66.32
2019-04-28T10:45:31.478Z,67.73
2019-04-28T10:48:01.044Z,66.65
2019-04-28T10:50:30.584Z,69.29
2019-04-28T10:52:59.980Z,67.84
2019-04-28T10:55:29.400Z,69.07
2019-04-28T10:57:58.800Z,70.21
2019-04-28T11:00:29.851Z,69.78
2019-04-28T11:02:59.258Z,66.03
2019-04-28T11:05:30.322Z,64.78
2019-04-28T11:08:00.400Z,63.73
2019-04-28T11:10:29.894Z,62.67
2019-04-28T11:12:59.291Z,59.99
2019-04-28T11:15:30.354Z,59.66
2019-04-28T11:17:59.928Z,63.42
2019-04-28T11:20:29.358Z,58.09
2019-04-28T11:22:58.836Z,60.87
2019-04-28T11:25:28.261Z,64.39
2019-04-28T11:27:57.731Z,64.21
2019-04-28T11:30:28.802Z,64.76
2019-04-28T11:33:02.708Z,62.24
2019-04-28T11:35:36.415Z,62.45
2019-04-28T11:38:06.048Z,59.17
2019-04-28T11:40:35.489Z,59.59
2019-04-28T11:43:04.952Z,57.58
2019-04-28T11:45:34.425Z,50.86
2019-04-28T11:48:03.885Z,47.35
2019-04-28T11:50:33.576Z,48.32
2019-04-28T11:53:03.023Z,49.25
2019-04-28T11:55:32.437Z,47.48
2019-04-28T11:58:02.673Z,46.66
2019-04-28T12:00:34.032Z,47.72
2019-04-28T12:03:03.779Z,49.28
2019-04-28T12:05:34.996Z,51.49
2019-04-28T12:08:05.995Z,49.11
2019-04-28T12:10:37.064Z,49.83
2019-04-28T12:13:10.562Z,48.38
2019-04-28T12:15:53.785Z,48.63
2019-04-28T12:18:40.865Z,49.36
2019-04-28T12:21:10.697Z,49.89
2019-04-28T12:23:40.098Z,51.26
2019-04-28T12:26:09.517Z,52.71
2019-04-28T12:28:38.913Z,53.42
2019-04-28T12:31:08.324Z,54.28
2019-04-28T12:33:37.797Z,55.52
2019-04-28T12:36:08.278Z,59.34
2019-04-28T12:38:37.684Z,61.58
2019-04-28T12:41:07.102Z,62.24
2019-04-28T12:43:36.507Z,61.60
2019-04-28T12:46:05.925Z,61.26
2019-04-28T12:48:35.411Z,62.29
2019-04-28T12:51:04.825Z,63.14
2019-04-28T12:53:34.217Z,64.31
2019-04-28T12:56:03.773Z,65.39
2019-04-28T12:58:33.250Z,64.60
2019-04-28T13:01:16.638Z,66.06
2019-04-28T13:03:50.387Z,65.55
2019-04-28T13:06:21.436Z,63.93
2019-04-28T13:08:50.842Z,65.00
2019-04-28T13:11:20.276Z,64.77
2019-04-28T13:13:49.676Z,66.13
2019-04-28T13:16:19.115Z,66.44
2019-04-28T13:18:48.510Z,66.11
2019-04-28T13:21:17.930Z,64.86
2019-04-28T13:23:47.351Z,65.89
2019-04-28T13:26:16.772Z,66.15
2019-04-28T13:28:46.172Z,65.70
2019-04-28T13:31:15.660Z,62.93
2019-04-28T13:33:55.941Z,65.74
2019-04-28T13:36:16.273Z,60.54
2019-04-28T13:38:45.707Z,60.13
2019-04-28T13:41:15.106Z,58.29
2019-04-28T13:43:44.513Z,60.91
2019-04-28T13:46:13.914Z,59.01
2019-04-28T13:48:43.317Z,53.51
2019-04-28T13:51:12.779Z,55.11
2019-04-28T13:53:42.213Z,54.37
2019-04-28T13:56:11.625Z,53.78
2019-04-28T13:58:41.320Z,53.44
2019-04-28T14:01:15.310Z,56.94
2019-04-28T14:03:58.716Z,56.01
2019-04-28T14:06:29.804Z,57.80
2019-04-28T14:08:59.171Z,57.54
2019-04-28T14:11:28.585Z,56.08
2019-04-28T14:13:58.002Z,56.47
2019-04-28T14:16:27.455Z,57.72
2019-04-28T14:18:56.817Z,53.90
2019-04-28T14:21:26.260Z,50.93
2019-04-28T14:23:55.709Z,50.09
2019-04-28T14:26:25.091Z,50.69
2019-04-28T14:28:54.495Z,51.12
2019-04-28T14:31:24.093Z,52.88
2019-04-28T14:33:53.533Z,53.93
2019-04-28T14:36:22.942Z,51.07
2019-04-28T14:38:52.355Z,52.78
2019-04-28T14:41:21.852Z,53.98
2019-04-28T14:43:51.326Z,51.83
2019-04-28T14:46:23.401Z,53.79
2019-04-28T14:48:52.824Z,51.00
2019-04-28T14:51:22.215Z,50.85
2019-04-28T14:53:51.642Z,51.26
2019-04-28T14:56:21.059Z,48.56
2019-04-28T14:58:50.539Z,50.20
2019-04-28T15:01:24.387Z,49.61
2019-04-28T15:03:58.691Z,49.03
2019-04-28T15:06:37.835Z,47.48
2019-04-28T15:09:19.554Z,46.43
2019-04-28T15:11:50.590Z,48.58
2019-04-28T15:14:20.016Z,49.18
2019-04-28T15:16:49.509Z,48.77
2019-04-28T15:19:18.979Z,49.22
2019-04-28T15:21:48.449Z,50.26
2019-04-28T15:24:17.861Z,51.90
2019-04-28T15:26:47.350Z,51.41
2019-04-28T15:29:16.814Z,52.33
2019-04-28T15:31:46.255Z,51.48
2019-04-28T15:34:15.656Z,51.83
2019-04-28T15:36:45.062Z,51.49
2019-04-28T15:39:14.950Z,50.81
2019-04-28T15:41:44.388Z,50.04
2019-04-28T15:44:13.868Z,49.87
2019-04-28T15:46:43.383Z,49.19
2019-04-28T15:49:12.897Z,49.30
2019-04-28T15:51:42.402Z,51.14
2019-04-28T15:54:11.888Z,49.22
2019-04-28T15:56:42.929Z,49.65
2019-04-28T15:59:12.344Z,49.52
2019-04-28T16:01:41.815Z,50.04
2019-04-28T16:04:11.253Z,48.86
2019-04-28T16:06:40.652Z,51.35
2019-04-28T16:09:12.196Z,51.30
2019-04-28T16:11:42.117Z,53.76
2019-04-28T16:14:11.521Z,55.50
2019-04-28T16:16:40.992Z,57.07
2019-04-28T16:19:10.438Z,58.04
2019-04-28T16:21:39.844Z,59.67
2019-04-28T16:24:09.276Z,60.02
2019-04-28T16:26:38.680Z,60.00
2019-04-28T16:29:08.103Z,60.39
2019-04-28T16:31:37.495Z,61.49
2019-04-28T16:34:06.914Z,61.61
2019-04-28T16:36:36.309Z,62.24
2019-04-28T16:39:07.382Z,63.21
2019-04-28T16:41:40.297Z,63.21
2019-04-28T16:44:11.815Z,62.64
2019-04-28T16:46:41.229Z,61.71
2019-04-28T16:49:10.657Z,63.10
2019-04-28T16:51:40.064Z,62.85
2019-04-28T16:54:09.477Z,63.20
2019-04-28T16:56:43.105Z,63.55
2019-04-28T17:02:10.181Z,63.45
2019-04-28T17:04:39.665Z,63.62
2019-04-28T17:07:09.556Z,62.54
2019-04-28T17:09:39.016Z,63.14
2019-04-28T17:12:08.502Z,63.89
2019-04-28T17:14:37.921Z,63.91
2019-04-28T17:17:07.321Z,65.30
2019-04-28T17:19:36.827Z,65.80
2019-04-28T17:22:06.240Z,65.44
2019-04-28T17:24:35.655Z,65.79
2019-04-28T17:27:05.129Z,65.45
2019-04-28T17:29:37.587Z,66.12
2019-04-28T17:32:05.909Z,66.59
2019-04-28T17:34:35.278Z,66.52
2019-04-28T17:37:05.397Z,67.22
2019-04-28T17:39:35.291Z,67.17
2019-04-28T17:42:05.042Z,67.81
2019-04-28T17:44:34.509Z,67.30
2019-04-28T17:47:04.236Z,67.30
2019-04-28T17:49:35.317Z,66.86
2019-04-28T17:52:05.883Z,67.56
2019-04-28T17:54:35.420Z,67.80
2019-04-28T17:57:05.140Z,67.83
2019-04-28T17:59:34.565Z,67.71
2019-04-28T18:02:22.171Z,67.36
2019-04-28T18:04:58.734Z,67.33
2019-04-28T18:07:29.913Z,68.56
2019-04-28T18:09:59.394Z,70.02
2019-04-28T18:12:28.864Z,70.49
2019-04-28T18:14:59.925Z,71.43
2019-04-28T18:17:30.968Z,71.69
2019-04-28T18:20:00.628Z,72.20
2019-04-28T18:22:29.977Z,72.21
2019-04-28T18:24:59.396Z,72.34
2019-04-28T18:27:28.780Z,72.19
2019-04-28T18:29:58.182Z,72.45
2019-04-28T18:32:44.311Z,72.15
2019-04-28T18:35:15.428Z,72.30
2019-04-28T18:37:52.638Z,72.30
2019-04-28T18:40:26.418Z,71.49
2019-04-28T18:42:57.448Z,70.84
2019-04-28T18:45:26.909Z,71.49
2019-04-28T18:47:56.299Z,70.79
2019-04-28T18:50:25.717Z,71.11
2019-04-28T18:52:56.655Z,71.91
2019-04-28T18:55:26.067Z,71.99
2019-04-28T18:57:55.494Z,71.01
2019-04-28T19:00:26.579Z,71.03
2019-04-28T19:02:55.982Z,72.07
2019-04-28T19:05:27.043Z,71.08
2019-04-28T19:08:06.268Z,70.49
2019-04-28T19:10:45.886Z,71.12
2019-04-28T19:13:19.705Z,72.15
2019-04-28T19:16:07.315Z,72.43
2019-04-28T19:18:41.071Z,72.25
2019-04-28T19:21:10.464Z,71.79
2019-04-28T19:23:39.877Z,72.19
2019-04-28T19:26:09.297Z,72.86
2019-04-28T19:28:38.708Z,72.92
2019-04-28T19:31:08.118Z,72.83
2019-04-28T19:33:37.496Z,72.25
2019-04-28T19:36:06.915Z,71.02
2019-04-28T19:38:36.308Z,71.15
2019-04-28T19:41:05.729Z,71.47
2019-04-28T19:43:35.212Z,71.89
2019-04-28T19:46:06.578Z,72.37
2019-04-28T19:48:35.973Z,72.56
2019-04-28T19:51:05.480Z,73.71
2019-04-28T19:53:34.876Z,73.11
2019-04-28T19:56:08.840Z,73.30
2019-04-28T19:58:42.837Z,73.87
2019-04-28T20:01:13.886Z,74.03
2019-04-28T20:03:43.325Z,74.23
2019-04-28T20:06:12.724Z,73.77
2019-04-28T20:08:42.092Z,73.69
2019-04-28T20:11:11.502Z,73.61
2019-04-28T20:13:40.904Z,74.27
2019-04-28T20:16:10.350Z,74.24
2019-04-28T20:18:39.754Z,73.93
2019-04-28T20:21:09.170Z,74.60
2019-04-28T20:23:38.572Z,74.83
2019-04-28T20:26:08.054Z,75.21
2019-04-28T20:28:37.561Z,75.17
2019-04-28T20:31:06.994Z,74.61
2019-04-28T20:33:36.452Z,74.92
2019-04-28T20:36:13.050Z,75.45
2019-04-28T20:38:42.513Z,75.56
2019-04-28T20:41:13.573Z,75.94
2019-04-28T20:43:42.986Z,76.35
2019-04-28T20:46:12.398Z,76.58
2019-04-28T20:48:41.802Z,76.78
2019-04-28T20:51:11.209Z,77.04
2019-04-28T20:53:40.607Z,77.35
2019-04-28T20:56:10.037Z,77.69
2019-04-28T20:58:39.424Z,78.30
2019-04-28T21:01:08.833Z,78.43
2019-04-28T21:03:38.630Z,78.67
2019-04-28T21:06:08.114Z,79.04
2019-04-28T21:08:37.511Z,79.18
2019-04-28T21:11:06.900Z,79.12
2019-04-28T21:13:36.367Z,78.99
2019-04-28T21:16:05.792Z,79.30
2019-04-28T21:18:35.187Z,79.21
2019-04-28T21:21:04.611Z,79.33
2019-04-28T21:23:34.033Z,79.70
2019-04-28T21:26:03.410Z,79.60
2019-04-28T21:28:32.807Z,79.42
2019-04-28T21:31:02.243Z,79.75
2019-04-28T21:33:31.633Z,80.08
2019-04-28T21:36:01.071Z,80.19
2019-04-28T21:38:30.471Z,79.96
2019-04-28T21:40:59.897Z,80.03
2019-04-28T21:43:34.055Z,80.24
2019-04-28T21:46:08.367Z,80.39
2019-04-28T21:48:39.403Z,80.61
2019-04-28T21:51:11.684Z,81.13
2019-04-28T21:53:39.917Z,81.51
2019-04-28T21:56:09.318Z,81.73
2019-04-28T21:58:38.759Z,81.68
2019-04-28T22:01:09.780Z,81.35
2019-04-28T22:03:39.395Z,81.15
2019-04-28T22:06:08.758Z,80.90
2019-04-28T22:08:38.177Z,80.77
2019-04-28T22:11:07.592Z,80.55
2019-04-28T22:13:37.023Z,80.91
2019-04-28T22:16:06.642Z,81.30
2019-04-28T22:18:36.049Z,81.32
2019-04-28T22:21:05.444Z,81.03
2019-04-28T22:23:53.148Z,81.38
2019-04-28T22:26:40.099Z,81.49
2019-04-28T22:29:09.575Z,82.29
2019-04-28T22:31:39.048Z,82.72
2019-04-28T22:34:08.594Z,82.91
2019-04-28T22:36:38.070Z,82.85
2019-04-28T22:39:08.308Z,83.00
2019-04-28T22:41:37.724Z,82.36
2019-04-28T22:44:07.416Z,81.68
2019-04-28T22:46:36.917Z,81.65
2019-04-28T22:49:06.935Z,81.80
2019-04-28T22:51:36.604Z,82.11
2019-04-28T22:54:24.091Z,82.43
2019-04-28T22:56:55.135Z,82.23
2019-04-28T22:59:35.112Z,82.51
2019-04-28T23:02:09.502Z,82.89
2019-04-28T23:04:46.257Z,83.03
2019-04-28T23:07:15.910Z,83.41
2019-04-28T23:09:45.345Z,83.33
2019-04-28T23:12:16.345Z,82.89
2019-04-28T23:14:45.744Z,83.40
2019-04-28T23:17:16.800Z,83.57
2019-04-28T23:19:46.190Z,82.27
2019-04-28T23:22:17.258Z,81.72
2019-04-28T23:24:46.646Z,81.32
2019-04-28T23:27:16.048Z,80.51
2019-04-28T23:29:45.508Z,80.98
2019-04-28T23:32:15.422Z,81.09
2019-04-28T23:34:44.809Z,81.48
2019-04-28T23:37:14.225Z,81.28
2019-04-28T23:39:43.623Z,81.43
2019-04-28T23:42:14.665Z,82.04
2019-04-28T23:44:44.057Z,83.29
2019-04-28T23:47:13.461Z,83.91
2019-04-28T23:49:42.851Z,84.37
2019-04-28T23:52:16.687Z,84.95
2019-04-28T23:54:47.714Z,84.41
2019-04-28T23:57:17.127Z,82.96
2019-04-28T23:59:46.514Z,82.38
